sensor_id;sensor_type;location;lat;lon;timestamp;pressure;altitude;pressure_sealevel;temperature;humidity
6453;BME280;3259;51.080;13.712;2023-07-31T00:02:44;100052.13;;;27.92;42.84
6453;BME280;3259;51.080;13.712;2023-07-31T00:05:33;100048.44;;;27.93;42.53
6453;BME280;3259;51.080;13.712;2023-07-31T00:08:23;100046.75;;;27.92;42.39
6453;BME280;3259;51.080;13.712;2023-07-31T00:11:14;100047.59;;;27.93;42.31
6453;BME280;3259;51.080;13.712;2023-07-31T00:14:04;100041.06;;;27.89;42.50
6453;BME280;3259;51.080;13.712;2023-07-31T00:16:56;100034.84;;;27.88;42.32
6453;BME280;3259;51.080;13.712;2023-07-31T00:19:48;100039.63;;;27.86;42.07
6453;BME280;3259;51.080;13.712;2023-07-31T00:22:39;100033.81;;;27.89;42.05
6453;BME280;3259;51.080;13.712;2023-07-31T00:25:31;100037.41;;;27.83;42.17
6453;BME280;3259;51.080;13.712;2023-07-31T00:28:21;100030.75;;;27.86;41.86
6453;BME280;3259;51.080;13.712;2023-07-31T00:31:12;100032.19;;;27.88;41.33
6453;BME280;3259;51.080;13.712;2023-07-31T00:34:02;100026.59;;;27.90;41.56
6453;BME280;3259;51.080;13.712;2023-07-31T00:36:55;100026.81;;;27.88;41.20
6453;BME280;3259;51.080;13.712;2023-07-31T00:39:47;100024.13;;;27.88;41.36
6453;BME280;3259;51.080;13.712;2023-07-31T00:42:37;100021.06;;;27.85;40.94
6453;BME280;3259;51.080;13.712;2023-07-31T00:45:27;100018.84;;;27.82;41.12
6453;BME280;3259;51.080;13.712;2023-07-31T00:48:17;100022.38;;;27.82;40.90
6453;BME280;3259;51.080;13.712;2023-07-31T00:51:09;100019.06;;;27.80;40.74
6453;BME280;3259;51.080;13.712;2023-07-31T00:54:06;100013.94;;;27.79;40.61
6453;BME280;3259;51.080;13.712;2023-07-31T00:56:55;100019.31;;;27.79;40.88
6453;BME280;3259;51.080;13.712;2023-07-31T00:59:46;100020.28;;;27.84;40.73
6453;BME280;3259;51.080;13.712;2023-07-31T01:02:35;100014.31;;;27.82;40.70
6453;BME280;3259;51.080;13.712;2023-07-31T01:05:43;100023.16;;;27.83;40.67
6453;BME280;3259;51.080;13.712;2023-07-31T01:08:42;100013.88;;;27.85;40.55
6453;BME280;3259;51.080;13.712;2023-07-31T01:11:39;100008.06;;;27.88;40.20
6453;BME280;3259;51.080;13.712;2023-07-31T01:14:33;100010.16;;;27.86;39.99
6453;BME280;3259;51.080;13.712;2023-07-31T01:17:22;100009.56;;;27.84;40.01
6453;BME280;3259;51.080;13.712;2023-07-31T01:20:16;100002.31;;;27.85;40.22
6453;BME280;3259;51.080;13.712;2023-07-31T01:23:32;100002.44;;;27.72;40.71
6453;BME280;3259;51.080;13.712;2023-07-31T01:26:34;99998.78;;;27.66;40.80
6453;BME280;3259;51.080;13.712;2023-07-31T01:29:34;100005.78;;;27.67;41.12
6453;BME280;3259;51.080;13.712;2023-07-31T01:32:30;100000.59;;;27.72;41.19
6453;BME280;3259;51.080;13.712;2023-07-31T01:35:21;99994.25;;;27.67;41.20
6453;BME280;3259;51.080;13.712;2023-07-31T01:38:14;99996.56;;;27.63;41.00
6453;BME280;3259;51.080;13.712;2023-07-31T01:41:03;99995.53;;;27.64;41.16
6453;BME280;3259;51.080;13.712;2023-07-31T01:43:54;99994.94;;;27.62;40.82
6453;BME280;3259;51.080;13.712;2023-07-31T01:46:44;100002.13;;;27.62;41.37
6453;BME280;3259;51.080;13.712;2023-07-31T01:49:36;99999.69;;;27.60;41.41
6453;BME280;3259;51.080;13.712;2023-07-31T01:52:26;99983.16;;;27.63;41.09
6453;BME280;3259;51.080;13.712;2023-07-31T01:55:23;99993.00;;;27.69;41.32
6453;BME280;3259;51.080;13.712;2023-07-31T01:58:16;99992.56;;;27.72;40.75
6453;BME280;3259;51.080;13.712;2023-07-31T02:01:08;99984.34;;;27.67;40.97
6453;BME280;3259;51.080;13.712;2023-07-31T02:03:57;99976.94;;;27.69;41.03
6453;BME280;3259;51.080;13.712;2023-07-31T02:06:49;99979.44;;;27.64;41.57
6453;BME280;3259;51.080;13.712;2023-07-31T02:09:43;99970.34;;;27.65;41.44
6453;BME280;3259;51.080;13.712;2023-07-31T02:12:34;99973.63;;;27.67;41.49
6453;BME280;3259;51.080;13.712;2023-07-31T02:15:24;99976.31;;;27.67;41.08
6453;BME280;3259;51.080;13.712;2023-07-31T02:18:16;99973.19;;;27.70;41.06
6453;BME280;3259;51.080;13.712;2023-07-31T02:21:05;99974.25;;;27.69;41.11
6453;BME280;3259;51.080;13.712;2023-07-31T02:23:57;99975.25;;;27.68;41.02
6453;BME280;3259;51.080;13.712;2023-07-31T02:26:46;99974.84;;;27.71;40.67
6453;BME280;3259;51.080;13.712;2023-07-31T02:29:35;99966.28;;;27.63;41.01
6453;BME280;3259;51.080;13.712;2023-07-31T02:32:33;99970.22;;;27.60;41.15
6453;BME280;3259;51.080;13.712;2023-07-31T02:35:27;99972.00;;;27.66;41.12
6453;BME280;3259;51.080;13.712;2023-07-31T02:38:19;99977.81;;;27.63;41.39
6453;BME280;3259;51.080;13.712;2023-07-31T02:41:11;99974.53;;;27.61;41.16
6453;BME280;3259;51.080;13.712;2023-07-31T02:44:03;99970.34;;;27.65;41.34
6453;BME280;3259;51.080;13.712;2023-07-31T02:46:54;99970.59;;;27.64;41.15
6453;BME280;3259;51.080;13.712;2023-07-31T02:49:44;99965.00;;;27.65;41.20
6453;BME280;3259;51.080;13.712;2023-07-31T02:52:36;99962.56;;;27.64;41.63
6453;BME280;3259;51.080;13.712;2023-07-31T02:55:26;99968.13;;;27.62;41.21
6453;BME280;3259;51.080;13.712;2023-07-31T02:58:17;99965.00;;;27.65;41.36
6453;BME280;3259;51.080;13.712;2023-07-31T03:01:06;99968.25;;;27.67;41.06
6453;BME280;3259;51.080;13.712;2023-07-31T03:04:01;99971.19;;;27.66;41.22
6453;BME280;3259;51.080;13.712;2023-07-31T03:06:53;99966.78;;;27.71;40.68
6453;BME280;3259;51.080;13.712;2023-07-31T03:09:45;99969.69;;;27.70;40.61
6453;BME280;3259;51.080;13.712;2023-07-31T03:12:39;99974.84;;;27.71;40.67
6453;BME280;3259;51.080;13.712;2023-07-31T03:15:32;99971.56;;;27.69;40.16
6453;BME280;3259;51.080;13.712;2023-07-31T03:18:24;99983.16;;;27.63;39.84
6453;BME280;3259;51.080;13.712;2023-07-31T03:21:14;99973.28;;;27.64;39.66
6453;BME280;3259;51.080;13.712;2023-07-31T03:24:05;99975.72;;;27.65;39.61
6453;BME280;3259;51.080;13.712;2023-07-31T03:26:58;99981.06;;;27.65;39.23
6453;BME280;3259;51.080;13.712;2023-07-31T03:29:48;99989.13;;;27.65;39.27
6453;BME280;3259;51.080;13.712;2023-07-31T03:32:39;99983.63;;;27.60;39.35
6453;BME280;3259;51.080;13.712;2023-07-31T03:35:29;99986.88;;;27.62;39.19
6453;BME280;3259;51.080;13.712;2023-07-31T03:38:21;99984.81;;;27.64;39.32
6453;BME280;3259;51.080;13.712;2023-07-31T03:41:13;99982.88;;;27.53;39.29
6453;BME280;3259;51.080;13.712;2023-07-31T03:44:09;99981.59;;;27.56;39.17
6453;BME280;3259;51.080;13.712;2023-07-31T03:46:58;99989.25;;;27.52;39.45
6453;BME280;3259;51.080;13.712;2023-07-31T03:49:51;99977.97;;;27.50;39.45
6453;BME280;3259;51.080;13.712;2023-07-31T03:52:42;99977.50;;;27.53;39.86
6453;BME280;3259;51.080;13.712;2023-07-31T03:55:32;99981.22;;;27.52;40.21
6453;BME280;3259;51.080;13.712;2023-07-31T03:58:21;99976.91;;;27.51;40.43
6453;BME280;3259;51.080;13.712;2023-07-31T04:01:13;99971.41;;;27.46;40.58
6453;BME280;3259;51.080;13.712;2023-07-31T04:04:03;99970.78;;;27.44;40.76
6453;BME280;3259;51.080;13.712;2023-07-31T04:06:54;99970.22;;;27.42;40.82
6453;BME280;3259;51.080;13.712;2023-07-31T04:09:43;99973.47;;;27.44;40.44
6453;BME280;3259;51.080;13.712;2023-07-31T04:12:32;99967.31;;;27.44;40.90
6453;BME280;3259;51.080;13.712;2023-07-31T04:15:23;99975.13;;;27.45;41.11
6453;BME280;3259;51.080;13.712;2023-07-31T04:18:15;99960.53;;;27.41;40.79
6453;BME280;3259;51.080;13.712;2023-07-31T04:21:05;99963.66;;;27.38;41.22
6453;BME280;3259;51.080;13.712;2023-07-31T04:23:54;99962.03;;;27.37;41.46
6453;BME280;3259;51.080;13.712;2023-07-31T04:26:49;99956.09;;;27.35;41.75
6453;BME280;3259;51.080;13.712;2023-07-31T04:29:41;99956.22;;;27.40;41.53
6453;BME280;3259;51.080;13.712;2023-07-31T04:32:35;99950.13;;;27.33;41.87
6453;BME280;3259;51.080;13.712;2023-07-31T04:35:31;99948.41;;;27.39;41.94
6453;BME280;3259;51.080;13.712;2023-07-31T04:38:21;99945.13;;;27.37;41.92
6453;BME280;3259;51.080;13.712;2023-07-31T04:41:13;99940.16;;;27.40;41.90
6453;BME280;3259;51.080;13.712;2023-07-31T04:44:02;99937.25;;;27.42;42.08
6453;BME280;3259;51.080;13.712;2023-07-31T04:46:51;99941.78;;;27.41;42.37
6453;BME280;3259;51.080;13.712;2023-07-31T04:49:41;99930.25;;;27.41;42.48
6453;BME280;3259;51.080;13.712;2023-07-31T04:52:33;99930.25;;;27.41;42.64
6453;BME280;3259;51.080;13.712;2023-07-31T04:55:22;99922.44;;;27.39;42.73
6453;BME280;3259;51.080;13.712;2023-07-31T04:58:13;99934.78;;;27.40;42.83
6453;BME280;3259;51.080;13.712;2023-07-31T05:01:02;99923.63;;;27.43;42.77
6453;BME280;3259;51.080;13.712;2023-07-31T05:03:52;99932.63;;;27.49;42.38
6453;BME280;3259;51.080;13.712;2023-07-31T05:06:42;99930.19;;;27.47;42.40
6453;BME280;3259;51.080;13.712;2023-07-31T05:09:33;99919.16;;;27.37;42.59
6453;BME280;3259;51.080;13.712;2023-07-31T05:12:22;99919.63;;;27.34;42.51
6453;BME280;3259;51.080;13.712;2023-07-31T05:15:11;99921.41;;;27.40;42.64
6453;BME280;3259;51.080;13.712;2023-07-31T05:18:02;99922.44;;;27.39;42.76
6453;BME280;3259;51.080;13.712;2023-07-31T05:20:52;99916.19;;;27.45;42.39
6453;BME280;3259;51.080;13.712;2023-07-31T05:23:42;99912.69;;;27.45;42.49
6453;BME280;3259;51.080;13.712;2023-07-31T05:26:35;99909.78;;;27.46;42.39
6453;BME280;3259;51.080;13.712;2023-07-31T05:29:27;99913.66;;;27.50;42.16
6453;BME280;3259;51.080;13.712;2023-07-31T05:32:16;99910.84;;;27.45;42.39
6453;BME280;3259;51.080;13.712;2023-07-31T05:35:07;99910.38;;;27.48;42.39
6453;BME280;3259;51.080;13.712;2023-07-31T05:37:56;99905.03;;;27.48;42.38
6453;BME280;3259;51.080;13.712;2023-07-31T05:40:49;99903.81;;;27.44;42.57
6453;BME280;3259;51.080;13.712;2023-07-31T05:43:40;99909.19;;;27.44;42.66
6453;BME280;3259;51.080;13.712;2023-07-31T05:46:30;99898.91;;;27.41;42.56
6453;BME280;3259;51.080;13.712;2023-07-31T05:49:19;99899.50;;;27.43;42.64
6453;BME280;3259;51.080;13.712;2023-07-31T05:52:08;99905.47;;;27.45;42.53
6453;BME280;3259;51.080;13.712;2023-07-31T05:54:58;99905.47;;;27.45;42.79
6453;BME280;3259;51.080;13.712;2023-07-31T05:57:48;99898.47;;;27.44;42.74
6453;BME280;3259;51.080;13.712;2023-07-31T06:00:39;99907.34;;;27.45;42.87
6453;BME280;3259;51.080;13.712;2023-07-31T06:03:28;99898.91;;;27.41;42.85
6453;BME280;3259;51.080;13.712;2023-07-31T06:06:18;99893.09;;;27.44;42.80
6453;BME280;3259;51.080;13.712;2023-07-31T06:09:07;99890.41;;;27.44;42.84
6453;BME280;3259;51.080;13.712;2023-07-31T06:11:58;99892.75;;;27.41;42.73
6453;BME280;3259;51.080;13.712;2023-07-31T06:14:47;99898.91;;;27.41;42.83
6453;BME280;3259;51.080;13.712;2023-07-31T06:17:38;99891.47;;;27.43;42.57
6453;BME280;3259;51.080;13.712;2023-07-31T06:20:28;99897.28;;;27.40;42.93
6453;BME280;3259;51.080;13.712;2023-07-31T06:23:17;99895.66;;;27.39;42.42
6453;BME280;3259;51.080;13.712;2023-07-31T06:26:08;99898.19;;;27.34;42.77
6453;BME280;3259;51.080;13.712;2023-07-31T06:28:57;99900.03;;;27.34;42.69
6453;BME280;3259;51.080;13.712;2023-07-31T06:31:46;99894.47;;;27.35;42.77
6453;BME280;3259;51.080;13.712;2023-07-31T06:34:37;99897.28;;;27.40;42.51
6453;BME280;3259;51.080;13.712;2023-07-31T06:37:27;99899.38;;;27.38;42.51
6453;BME280;3259;51.080;13.712;2023-07-31T06:40:16;99895.53;;;27.34;42.52
6453;BME280;3259;51.080;13.712;2023-07-31T06:43:06;99892.84;;;27.34;42.39
6453;BME280;3259;51.080;13.712;2023-07-31T06:45:55;99897.38;;;27.34;42.58
6453;BME280;3259;51.080;13.712;2023-07-31T06:48:44;99889.53;;;27.32;42.72
6453;BME280;3259;51.080;13.712;2023-07-31T06:51:34;99894.22;;;27.37;42.86
6453;BME280;3259;51.080;13.712;2023-07-31T06:54:25;99888.75;;;27.32;43.06
6453;BME280;3259;51.080;13.712;2023-07-31T06:57:13;99894.03;;;27.38;42.92
6453;BME280;3259;51.080;13.712;2023-07-31T07:00:03;99899.97;;;27.40;42.77
6453;BME280;3259;51.080;13.712;2023-07-31T07:02:52;99901.59;;;27.41;42.73
6453;BME280;3259;51.080;13.712;2023-07-31T07:05:40;99903.47;;;27.41;42.86
6453;BME280;3259;51.080;13.712;2023-07-31T07:08:31;99904.72;;;27.38;42.83
6453;BME280;3259;51.080;13.712;2023-07-31T07:11:20;99905.09;;;27.42;42.86
6453;BME280;3259;51.080;13.712;2023-07-31T07:14:09;99901.91;;;27.33;42.95
6453;BME280;3259;51.080;13.712;2023-07-31T07:17:01;99898.19;;;27.34;42.66
6453;BME280;3259;51.080;13.712;2023-07-31T07:19:51;99894.56;;;27.29;43.22
6453;BME280;3259;51.080;13.712;2023-07-31T07:22:41;99899.44;;;27.32;42.98
6453;BME280;3259;51.080;13.712;2023-07-31T07:25:37;99904.28;;;27.41;42.74
6453;BME280;3259;51.080;13.712;2023-07-31T07:28:26;99898.91;;;27.41;42.92
6453;BME280;3259;51.080;13.712;2023-07-31T07:31:17;99891.13;;;27.40;42.88
6453;BME280;3259;51.080;13.712;2023-07-31T07:34:07;99894.31;;;27.48;42.63
6453;BME280;3259;51.080;13.712;2023-07-31T07:36:57;99884.47;;;27.42;42.61
6453;BME280;3259;51.080;13.712;2023-07-31T07:39:47;99902.19;;;27.43;42.59
6453;BME280;3259;51.080;13.712;2023-07-31T07:42:38;99879.94;;;27.43;42.63
6453;BME280;3259;51.080;13.712;2023-07-31T07:45:30;99892.13;;;27.39;42.60
6453;BME280;3259;51.080;13.712;2023-07-31T07:48:19;99892.69;;;27.47;42.21
6453;BME280;3259;51.080;13.712;2023-07-31T07:51:08;99888.00;;;27.43;41.95
6453;BME280;3259;51.080;13.712;2023-07-31T07:53:57;99893.56;;;27.41;42.35
6453;BME280;3259;51.080;13.712;2023-07-31T07:56:45;99897.66;;;27.44;42.25
6453;BME280;3259;51.080;13.712;2023-07-31T07:59:36;99896.41;;;27.46;42.23
6453;BME280;3259;51.080;13.712;2023-07-31T08:02:27;99905.91;;;27.42;42.12
6453;BME280;3259;51.080;13.712;2023-07-31T08:05:16;99909.63;;;27.41;41.83
6453;BME280;3259;51.080;13.712;2023-07-31T08:08:05;99897.06;;;27.42;42.10
6453;BME280;3259;51.080;13.712;2023-07-31T08:10:54;99905.91;;;27.42;41.94
6453;BME280;3259;51.080;13.712;2023-07-31T08:13:42;99907.41;;;27.38;41.92
6453;BME280;3259;51.080;13.712;2023-07-31T08:16:32;99906.56;;;27.38;42.23
6453;BME280;3259;51.080;13.712;2023-07-31T08:19:21;99904.72;;;27.38;42.40
6453;BME280;3259;51.080;13.712;2023-07-31T08:22:10;99905.91;;;27.42;42.20
6453;BME280;3259;51.080;13.712;2023-07-31T08:24:59;99908.44;;;27.37;42.13
6453;BME280;3259;51.080;13.712;2023-07-31T08:27:48;99908.84;;;27.41;42.13
6453;BME280;3259;51.080;13.712;2023-07-31T08:30:39;99899.84;;;27.35;42.38
6453;BME280;3259;51.080;13.712;2023-07-31T08:33:30;99905.31;;;27.40;42.22
6453;BME280;3259;51.080;13.712;2023-07-31T08:36:18;99899.38;;;27.38;42.24
6453;BME280;3259;51.080;13.712;2023-07-31T08:39:07;99903.09;;;27.37;42.10
6453;BME280;3259;51.080;13.712;2023-07-31T08:41:58;99910.47;;;27.42;41.74
6453;BME280;3259;51.080;13.712;2023-07-31T08:44:48;99907.41;;;27.38;41.85
6453;BME280;3259;51.080;13.712;2023-07-31T08:47:38;99908.00;;;27.40;41.39
6453;BME280;3259;51.080;13.712;2023-07-31T08:50:30;99903.09;;;27.37;41.33
6453;BME280;3259;51.080;13.712;2023-07-31T08:53:19;99904.72;;;27.38;41.41
6453;BME280;3259;51.080;13.712;2023-07-31T08:56:10;99902.25;;;27.37;41.35
6453;BME280;3259;51.080;13.712;2023-07-31T08:59:02;99896.69;;;27.38;41.15
6453;BME280;3259;51.080;13.712;2023-07-31T09:01:53;99901.38;;;27.43;41.25
6453;BME280;3259;51.080;13.712;2023-07-31T09:04:44;99909.63;;;27.41;41.07
6453;BME280;3259;51.080;13.712;2023-07-31T09:07:35;99908.44;;;27.37;41.01
6453;BME280;3259;51.080;13.712;2023-07-31T09:10:24;99905.53;;;27.39;41.38
6453;BME280;3259;51.080;13.712;2023-07-31T09:13:13;99905.91;;;27.42;40.98
6453;BME280;3259;51.080;13.712;2023-07-31T09:16:02;99900.88;;;27.34;41.08
6453;BME280;3259;51.080;13.712;2023-07-31T09:18:55;99896.09;;;27.36;41.23
6453;BME280;3259;51.080;13.712;2023-07-31T09:21:48;99899.84;;;27.35;40.97
6453;BME280;3259;51.080;13.712;2023-07-31T09:24:38;99899.16;;;27.40;41.03
6453;BME280;3259;51.080;13.712;2023-07-31T09:27:27;99892.00;;;27.34;41.34
6453;BME280;3259;51.080;13.712;2023-07-31T09:30:17;99892.84;;;27.34;41.22
6453;BME280;3259;51.080;13.712;2023-07-31T09:33:09;99883.75;;;27.35;41.07
6453;BME280;3259;51.080;13.712;2023-07-31T09:36:12;99882.84;;;27.41;41.18
6453;BME280;3259;51.080;13.712;2023-07-31T09:39:15;99884.09;;;27.39;41.41
6453;BME280;3259;51.080;13.712;2023-07-31T09:42:08;99868.41;;;27.42;41.25
6453;BME280;3259;51.080;13.712;2023-07-31T09:45:06;99872.59;;;27.38;41.19
6453;BME280;3259;51.080;13.712;2023-07-31T09:47:56;99875.06;;;27.40;41.11
6453;BME280;3259;51.080;13.712;2023-07-31T09:50:46;99871.91;;;27.43;40.97
6453;BME280;3259;51.080;13.712;2023-07-31T09:53:35;99869.22;;;27.43;40.76
6453;BME280;3259;51.080;13.712;2023-07-31T09:56:25;99875.06;;;27.40;41.16
6453;BME280;3259;51.080;13.712;2023-07-31T09:59:16;99880.75;;;27.43;41.14
6453;BME280;3259;51.080;13.712;2023-07-31T10:02:15;99873.34;;;27.45;41.18
6453;BME280;3259;51.080;13.712;2023-07-31T10:05:10;99874.50;;;27.49;41.25
6453;BME280;3259;51.080;13.712;2023-07-31T10:08:00;99870.88;;;27.44;41.02
6453;BME280;3259;51.080;13.712;2023-07-31T10:10:49;99869.75;;;27.51;41.16
6453;BME280;3259;51.080;13.712;2023-07-31T10:13:38;99862.63;;;27.45;41.06
6453;BME280;3259;51.080;13.712;2023-07-31T10:16:29;99861.56;;;27.46;41.18
6453;BME280;3259;51.080;13.712;2023-07-31T10:19:19;99856.56;;;27.50;41.03
6453;BME280;3259;51.080;13.712;2023-07-31T10:22:09;99851.44;;;27.48;41.33
6453;BME280;3259;51.080;13.712;2023-07-31T10:25:00;99846.66;;;27.50;41.11
6453;BME280;3259;51.080;13.712;2023-07-31T10:27:49;99846.47;;;27.52;41.12
6453;BME280;3259;51.080;13.712;2023-07-31T10:30:39;99846.47;;;27.52;41.04
6453;BME280;3259;51.080;13.712;2023-07-31T10:33:30;99846.00;;;27.55;40.86
6453;BME280;3259;51.080;13.712;2023-07-31T10:36:20;99837.13;;;27.54;41.12
6453;BME280;3259;51.080;13.712;2023-07-31T10:39:33;99835.66;;;27.58;40.85
6453;BME280;3259;51.080;13.712;2023-07-31T10:42:28;99841.44;;;27.55;40.76
6453;BME280;3259;51.080;13.712;2023-07-31T10:45:25;99830.72;;;27.55;40.79
6453;BME280;3259;51.080;13.712;2023-07-31T10:48:16;99834.44;;;27.54;40.40
6453;BME280;3259;51.080;13.712;2023-07-31T10:51:09;99817.56;;;27.54;40.58
6453;BME280;3259;51.080;13.712;2023-07-31T10:54:10;99825.44;;;27.49;41.00
6453;BME280;3259;51.080;13.712;2023-07-31T10:57:00;99825.09;;;27.45;40.96
6453;BME280;3259;51.080;13.712;2023-07-31T10:59:50;99819.75;;;27.45;41.00
6453;BME280;3259;51.080;13.712;2023-07-31T11:02:39;99825.03;;;27.52;41.21
6453;BME280;3259;51.080;13.712;2023-07-31T11:06:00;99822.09;;;27.53;40.88
6453;BME280;3259;51.080;13.712;2023-07-31T11:08:51;99815.69;;;27.54;40.81
6453;BME280;3259;51.080;13.712;2023-07-31T11:11:40;99819.56;;;27.58;40.98
6453;BME280;3259;51.080;13.712;2023-07-31T11:14:29;99809.66;;;27.59;40.97
6453;BME280;3259;51.080;13.712;2023-07-31T11:17:18;99811.28;;;27.60;40.84
6453;BME280;3259;51.080;13.712;2023-07-31T11:20:08;99809.44;;;27.60;40.70
6453;BME280;3259;51.080;13.712;2023-07-31T11:22:59;99797.66;;;27.61;40.85
6453;BME280;3259;51.080;13.712;2023-07-31T11:25:50;99806.16;;;27.58;40.93
6453;BME280;3259;51.080;13.712;2023-07-31T11:28:39;99805.94;;;27.60;40.82
6453;BME280;3259;51.080;13.712;2023-07-31T11:31:29;99805.72;;;27.61;41.27
6453;BME280;3259;51.080;13.712;2023-07-31T11:34:18;99806.28;;;27.63;41.38
6453;BME280;3259;51.080;13.712;2023-07-31T11:37:07;99801.84;;;27.57;41.38
6453;BME280;3259;51.080;13.712;2023-07-31T11:39:59;99803.63;;;27.63;41.63
6453;BME280;3259;51.080;13.712;2023-07-31T11:42:50;99790.00;;;27.65;41.37
6453;BME280;3259;51.080;13.712;2023-07-31T11:45:39;99793.00;;;27.68;41.30
6453;BME280;3259;51.080;13.712;2023-07-31T11:48:29;99777.88;;;27.62;41.74
6453;BME280;3259;51.080;13.712;2023-07-31T11:51:21;99787.22;;;27.71;41.41
6453;BME280;3259;51.080;13.712;2023-07-31T11:54:10;99779.97;;;27.72;41.35
6453;BME280;3259;51.080;13.712;2023-07-31T11:57:01;99774.03;;;27.70;41.67
6453;BME280;3259;51.080;13.712;2023-07-31T11:59:51;99770.69;;;27.74;41.67
6453;BME280;3259;51.080;13.712;2023-07-31T12:02:41;99770.31;;;27.71;41.67
6453;BME280;3259;51.080;13.712;2023-07-31T12:05:30;99769.06;;;27.73;41.67
6453;BME280;3259;51.080;13.712;2023-07-31T12:08:20;99759.38;;;27.72;42.10
6453;BME280;3259;51.080;13.712;2023-07-31T12:11:10;99761.78;;;27.62;42.17
6453;BME280;3259;51.080;13.712;2023-07-31T12:13:58;99753.44;;;27.70;41.95
6453;BME280;3259;51.080;13.712;2023-07-31T12:16:53;99756.53;;;27.67;41.67
6453;BME280;3259;51.080;13.712;2023-07-31T12:19:43;99747.22;;;27.70;41.80
6453;BME280;3259;51.080;13.712;2023-07-31T12:22:31;99731.53;;;27.73;41.77
6453;BME280;3259;51.080;13.712;2023-07-31T12:25:20;99728.69;;;27.68;41.59
6453;BME280;3259;51.080;13.712;2023-07-31T12:28:10;99727.00;;;27.74;41.54
6453;BME280;3259;51.080;13.712;2023-07-31T12:31:01;99725.25;;;27.79;41.35
6453;BME280;3259;51.080;13.712;2023-07-31T12:33:51;99720.34;;;27.76;41.82
6453;BME280;3259;51.080;13.712;2023-07-31T12:36:42;99729.34;;;27.82;41.85
6453;BME280;3259;51.080;13.712;2023-07-31T12:39:30;99709.78;;;27.81;41.56
6453;BME280;3259;51.080;13.712;2023-07-31T12:42:19;99700.06;;;27.80;41.30
6453;BME280;3259;51.080;13.712;2023-07-31T12:45:08;99704.75;;;27.73;41.02
6453;BME280;3259;51.080;13.712;2023-07-31T12:47:57;99691.81;;;27.82;40.79
6453;BME280;3259;51.080;13.712;2023-07-31T12:50:47;99680.28;;;27.81;40.95
6453;BME280;3259;51.080;13.712;2023-07-31T12:53:36;99684.59;;;27.82;40.82
6453;BME280;3259;51.080;13.712;2023-07-31T12:56:25;99681.91;;;27.82;41.03
6453;BME280;3259;51.080;13.712;2023-07-31T12:59:14;99678.19;;;27.83;41.10
6453;BME280;3259;51.080;13.712;2023-07-31T13:02:02;99672.69;;;27.78;40.52
6453;BME280;3259;51.080;13.712;2023-07-31T13:04:53;99677.13;;;27.84;40.97
6453;BME280;3259;51.080;13.712;2023-07-31T13:07:44;99667.91;;;27.80;40.93
6453;BME280;3259;51.080;13.712;2023-07-31T13:10:35;99669.91;;;27.73;40.40
6453;BME280;3259;51.080;13.712;2023-07-31T13:13:24;99667.00;;;27.75;40.59
6453;BME280;3259;51.080;13.712;2023-07-31T13:16:15;99668.75;;;27.81;40.35
6453;BME280;3259;51.080;13.712;2023-07-31T13:19:04;99664.66;;;27.78;40.01
6453;BME280;3259;51.080;13.712;2023-07-31T13:21:52;99668.16;;;27.79;40.09
6453;BME280;3259;51.080;13.712;2023-07-31T13:24:42;99665.94;;;27.76;39.86
6453;BME280;3259;51.080;13.712;2023-07-31T13:27:31;99669.91;;;27.73;40.00
6453;BME280;3259;51.080;13.712;2023-07-31T13:30:21;99656.34;;;27.68;40.15
6453;BME280;3259;51.080;13.712;2023-07-31T13:33:09;99651.94;;;27.74;40.50
6453;BME280;3259;51.080;13.712;2023-07-31T13:36:18;99644.63;;;27.81;40.35
6453;BME280;3259;51.080;13.712;2023-07-31T13:39:07;99642.97;;;27.80;40.37
6453;BME280;3259;51.080;13.712;2023-07-31T13:41:57;99640.78;;;27.77;40.10
6453;BME280;3259;51.080;13.712;2023-07-31T13:44:46;99636.56;;;27.81;39.86
6453;BME280;3259;51.080;13.712;2023-07-31T13:47:35;99632.25;;;27.91;39.88
6453;BME280;3259;51.080;13.712;2023-07-31T13:50:24;99633.44;;;27.95;40.19
6453;BME280;3259;51.080;13.712;2023-07-31T13:53:13;99629.81;;;27.90;40.06
6453;BME280;3259;51.080;13.712;2023-07-31T13:56:02;99622.81;;;27.89;39.72
6453;BME280;3259;51.080;13.712;2023-07-31T13:58:52;99615.13;;;27.81;40.25
6453;BME280;3259;51.080;13.712;2023-07-31T14:01:40;99619.66;;;27.80;40.10
6453;BME280;3259;51.080;13.712;2023-07-31T14:04:29;99614.19;;;27.75;40.23
6453;BME280;3259;51.080;13.712;2023-07-31T14:07:18;99618.50;;;27.76;39.77
6453;BME280;3259;51.080;13.712;2023-07-31T14:10:07;99609.28;;;27.72;39.39
6453;BME280;3259;51.080;13.712;2023-07-31T14:12:56;99587.25;;;27.70;39.46
6453;BME280;3259;51.080;13.712;2023-07-31T14:15:46;99604.63;;;27.68;39.80
6453;BME280;3259;51.080;13.712;2023-07-31T14:18:35;99603.91;;;27.72;39.50
6453;BME280;3259;51.080;13.712;2023-07-31T14:21:24;99612.44;;;27.69;39.26
6453;BME280;3259;51.080;13.712;2023-07-31T14:24:13;99618.59;;;27.70;39.54
6453;BME280;3259;51.080;13.712;2023-07-31T14:27:02;99601.34;;;27.66;39.67
6453;BME280;3259;51.080;13.712;2023-07-31T14:29:51;99605.53;;;27.62;39.03
6453;BME280;3259;51.080;13.712;2023-07-31T14:32:41;99606.03;;;27.70;39.56
6453;BME280;3259;51.080;13.712;2023-07-31T14:35:30;99595.88;;;27.72;39.83
6453;BME280;3259;51.080;13.712;2023-07-31T14:38:18;99609.25;;;27.61;39.99
6453;BME280;3259;51.080;13.712;2023-07-31T14:41:07;99585.38;;;27.71;39.66
6453;BME280;3259;51.080;13.712;2023-07-31T14:43:56;99587.25;;;27.70;39.54
6453;BME280;3259;51.080;13.712;2023-07-31T14:46:44;99580.03;;;27.71;39.45
6453;BME280;3259;51.080;13.712;2023-07-31T14:49:35;99570.25;;;27.76;39.67
6453;BME280;3259;51.080;13.712;2023-07-31T14:52:24;99581.56;;;27.78;39.70
6453;BME280;3259;51.080;13.712;2023-07-31T14:55:12;99581.28;;;27.68;39.72
6453;BME280;3259;51.080;13.712;2023-07-31T14:58:01;99574.09;;;27.69;39.54
6453;BME280;3259;51.080;13.712;2023-07-31T15:00:50;99571.63;;;27.67;40.02
6453;BME280;3259;51.080;13.712;2023-07-31T15:03:39;99580.28;;;27.69;40.22
6453;BME280;3259;51.080;13.712;2023-07-31T15:06:29;99574.44;;;27.72;40.64
6453;BME280;3259;51.080;13.712;2023-07-31T15:09:18;99574.78;;;27.64;40.51
6453;BME280;3259;51.080;13.712;2023-07-31T15:12:07;99570.75;;;27.73;39.94
6453;BME280;3259;51.080;13.712;2023-07-31T15:14:56;99573.25;;;27.68;39.74
6453;BME280;3259;51.080;13.712;2023-07-31T15:17:45;99573.88;;;27.70;39.63